createdAt,value
2023-02-24T00:02:06.100Z,100744.41
2023-02-24T00:04:38.404Z,100745.25
2023-02-24T00:07:06.549Z,100743.50
2023-02-24T00:09:33.712Z,100740.00
2023-02-24T00:12:12.991Z,100737.34
2023-02-24T00:14:43.748Z,100738.22
2023-02-24T00:17:14.374Z,100732.03
2023-02-24T00:19:41.590Z,100725.88
2023-02-24T00:22:08.843Z,100719.69
2023-02-24T00:24:36.162Z,100717.03
2023-02-24T00:27:11.363Z,100720.53
2023-02-24T00:29:39.973Z,100710.78
2023-02-24T00:32:08.018Z,100709.91
2023-02-24T00:34:37.530Z,100713.41
2023-02-24T00:37:08.553Z,100702.84
2023-02-24T00:39:37.059Z,100702.78
2023-02-24T00:42:06.031Z,100693.13
2023-02-24T00:44:36.910Z,100691.38
2023-02-24T00:47:06.667Z,100696.69
2023-02-24T00:49:41.944Z,100689.66
2023-02-24T00:52:13.620Z,100694.94
2023-02-24T00:54:42.669Z,100692.31
2023-02-24T00:57:10.018Z,100683.50
2023-02-24T00:59:37.063Z,100687.03
2023-02-24T01:02:06.920Z,100694.09
2023-02-24T01:04:34.628Z,100680.00
2023-02-24T01:07:01.747Z,100675.63
2023-02-24T01:09:31.553Z,100671.22
2023-02-24T01:12:17.358Z,100678.22
2023-02-24T01:14:49.645Z,100670.31
2023-02-24T01:17:19.134Z,100668.56
2023-02-24T01:19:49.046Z,100668.56
2023-02-24T01:22:18.767Z,100674.69
2023-02-24T01:24:45.751Z,100673.84
2023-02-24T01:27:14.934Z,100664.13
2023-02-24T01:29:41.875Z,100653.56
2023-02-24T01:32:16.960Z,100650.06
2023-02-24T01:34:44.053Z,100652.66
2023-02-24T01:37:16.156Z,100652.63
2023-02-24T01:39:44.666Z,100642.97
2023-02-24T01:42:16.809Z,100639.44
2023-02-24T01:44:43.603Z,100635.91
2023-02-24T01:47:11.416Z,100623.59
2023-02-24T01:49:43.648Z,100626.22
2023-02-24T01:52:25.401Z,100628.88
2023-02-24T01:55:07.184Z,100626.22
2023-02-24T01:57:38.622Z,100617.41
2023-02-24T02:00:11.155Z,100620.91
2023-02-24T02:02:47.370Z,100617.38
2023-02-24T02:05:14.848Z,100613.88
2023-02-24T02:07:43.468Z,100616.47
2023-02-24T02:10:11.416Z,100614.72
2023-02-24T02:12:44.361Z,100605.94
2023-02-24T02:15:16.676Z,100604.16
2023-02-24T02:18:11.852Z,100603.25
2023-02-24T02:21:08.769Z,100588.31
2023-02-24T02:24:07.572Z,100587.41
2023-02-24T02:27:20.843Z,100580.34
2023-02-24T02:30:36.089Z,100574.16
2023-02-24T02:33:44.091Z,100572.38
2023-02-24T02:36:34.230Z,100566.22
2023-02-24T02:39:15.822Z,100568.00
2023-02-24T02:41:54.843Z,100560.94
2023-02-24T02:44:47.559Z,100559.16
2023-02-24T02:47:28.217Z,100549.50
2023-02-24T02:50:08.197Z,100548.59
2023-02-24T02:52:43.290Z,100545.09
2023-02-24T02:55:15.999Z,100547.72
2023-02-24T02:57:47.831Z,100542.44
2023-02-24T03:00:23.098Z,100538.06
2023-02-24T03:03:03.307Z,100534.53
2023-02-24T03:05:37.150Z,100524.00
2023-02-24T03:08:11.246Z,100527.53
2023-02-24T03:10:41.686Z,100522.25
2023-02-24T03:13:13.215Z,100517.84
2023-02-24T03:15:44.697Z,100517.00
2023-02-24T03:18:19.984Z,100502.06
2023-02-24T03:20:57.229Z,100500.28
2023-02-24T03:23:27.684Z,100498.53
2023-02-24T03:26:29.895Z,100492.38
2023-02-24T03:29:24.733Z,100483.56
2023-02-24T03:31:54.165Z,100487.91
2023-02-24T03:35:00.066Z,100483.53
2023-02-24T03:37:29.846Z,100485.28
2023-02-24T03:40:12.040Z,100483.53
2023-02-24T03:42:44.359Z,100475.63
2023-02-24T03:45:12.070Z,100468.59
2023-02-24T03:47:40.616Z,100476.50
2023-02-24T03:50:17.821Z,100462.44
2023-02-24T03:53:01.422Z,100466.81
2023-02-24T03:55:59.507Z,100462.41
2023-02-24T03:58:36.846Z,100463.25
2023-02-24T04:01:57.783Z,100457.09
2023-02-24T04:04:37.611Z,100459.72
2023-02-24T04:07:40.684Z,100457.97
2023-02-24T04:10:24.179Z,100455.34
2023-02-24T04:12:58.255Z,100461.44
2023-02-24T04:15:43.821Z,100457.94
2023-02-24T04:18:20.327Z,100456.16
2023-02-24T04:20:50.985Z,100447.34
2023-02-24T04:23:23.550Z,100447.38
2023-02-24T04:25:53.150Z,100445.59
2023-02-24T04:28:25.096Z,100438.56
2023-02-24T04:30:58.435Z,100444.72
2023-02-24T04:33:25.615Z,100438.56
2023-02-24T04:35:53.376Z,100431.53
2023-02-24T04:38:20.450Z,100431.53
2023-02-24T04:40:49.707Z,100438.53
2023-02-24T04:43:16.695Z,100428.88
2023-02-24T04:45:44.194Z,100430.66
2023-02-24T04:48:14.313Z,100418.34
2023-02-24T04:50:43.485Z,100413.06
2023-02-24T04:53:14.700Z,100406.91
2023-02-24T04:55:48.585Z,100398.13
2023-02-24T04:58:22.072Z,100390.22
2023-02-24T05:00:52.579Z,100383.16
2023-02-24T05:03:22.353Z,100369.97
2023-02-24T05:05:52.558Z,100367.34
2023-02-24T05:08:20.068Z,100367.34
2023-02-24T05:10:47.470Z,100360.31
2023-02-24T05:13:26.806Z,100361.19
2023-02-24T05:16:08.206Z,100355.03
2023-02-24T05:18:38.628Z,100360.28
2023-02-24T05:21:30.688Z,100348.00
2023-02-24T05:24:06.390Z,100349.75
2023-02-24T05:26:36.080Z,100336.56
2023-02-24T05:29:05.443Z,100333.03
2023-02-24T05:31:32.281Z,100325.13
2023-02-24T05:34:03.688Z,100326.91
2023-02-24T05:36:40.425Z,100319.00
2023-02-24T05:39:12.009Z,100311.09
2023-02-24T05:41:42.202Z,100318.09
2023-02-24T05:44:14.114Z,100311.97
2023-02-24T05:46:44.535Z,100304.91
2023-02-24T05:49:26.853Z,100305.78
2023-02-24T05:52:00.730Z,100305.78
2023-02-24T05:54:40.065Z,100293.47
2023-02-24T05:57:11.931Z,100288.22
2023-02-24T05:59:41.005Z,100283.84
2023-02-24T06:02:12.912Z,100272.41
2023-02-24T06:04:54.027Z,100275.94
2023-02-24T06:07:27.710Z,100271.53
2023-02-24T06:09:58.945Z,100264.53
2023-02-24T06:12:32.196Z,100262.75
2023-02-24T06:14:59.383Z,100260.97
2023-02-24T06:17:27.598Z,100253.09
2023-02-24T06:19:54.871Z,100251.34
2023-02-24T06:22:24.998Z,100246.97
2023-02-24T06:24:54.905Z,100242.56
2023-02-24T06:27:24.455Z,100240.81
2023-02-24T06:29:53.873Z,100234.69
2023-02-24T06:32:24.837Z,100224.13
2023-02-24T06:34:53.730Z,100226.78
2023-02-24T06:37:20.753Z,100216.25
2023-02-24T06:39:47.957Z,100221.50
2023-02-24T06:42:14.813Z,100217.13
2023-02-24T06:44:42.116Z,100210.97
2023-02-24T06:47:17.775Z,100214.47
2023-02-24T06:49:44.555Z,100210.09
2023-02-24T06:52:18.200Z,100198.69
2023-02-24T06:54:47.662Z,100197.81
2023-02-24T06:57:14.474Z,100197.81
2023-02-24T06:59:48.743Z,100201.31
2023-02-24T07:02:17.523Z,100199.59
2023-02-24T07:04:44.360Z,100195.19
2023-02-24T07:07:14.082Z,100189.91
2023-02-24T07:09:42.421Z,100186.44
2023-02-24T07:12:11.048Z,100182.94
2023-02-24T07:14:40.345Z,100188.19
2023-02-24T07:17:08.427Z,100186.44
2023-02-24T07:19:35.275Z,100176.78
2023-02-24T07:22:03.641Z,100168.03
2023-02-24T07:24:36.686Z,100164.50
2023-02-24T07:27:12.548Z,100153.09
2023-02-24T07:29:39.759Z,100153.09
2023-02-24T07:32:09.382Z,100159.25
2023-02-24T07:34:39.916Z,100143.47
2023-02-24T07:37:09.463Z,100146.13
2023-02-24T07:39:39.077Z,100140.88
2023-02-24T07:42:08.442Z,100140.84
2023-02-24T07:44:35.223Z,100135.59
2023-02-24T07:47:07.524Z,100130.31
2023-02-24T07:49:35.342Z,100134.72
2023-02-24T07:52:02.105Z,100120.69
2023-02-24T07:54:30.571Z,100117.16
2023-02-24T07:56:59.153Z,100114.56
2023-02-24T07:59:33.158Z,100104.91
2023-02-24T08:02:04.520Z,100100.50
2023-02-24T08:04:39.559Z,100089.06
2023-02-24T08:07:12.980Z,100102.25
2023-02-24T08:09:46.041Z,100082.03
2023-02-24T08:12:18.729Z,100082.06
2023-02-24T08:14:50.752Z,100074.13
2023-02-24T08:17:26.773Z,100068.91
2023-02-24T08:20:21.821Z,100074.16
2023-02-24T08:22:53.690Z,100076.78
2023-02-24T08:25:35.306Z,100070.66
2023-02-24T08:28:09.278Z,100064.50
2023-02-24T08:30:45.274Z,100062.78
2023-02-24T08:33:22.935Z,100051.34
2023-02-24T08:36:00.820Z,100057.47
2023-02-24T08:38:40.330Z,100054.88
2023-02-24T08:41:17.463Z,100055.72
2023-02-24T08:43:46.387Z,100056.56
2023-02-24T08:46:18.396Z,100048.66
2023-02-24T08:48:55.901Z,100046.00
2023-02-24T08:51:34.831Z,100041.59
2023-02-24T08:54:15.396Z,100042.47
2023-02-24T08:56:48.995Z,100044.16
2023-02-24T08:59:36.914Z,100041.50
2023-02-24T09:02:23.117Z,100033.59
2023-02-24T09:05:05.264Z,100021.31
2023-02-24T09:07:36.643Z,100017.78
2023-02-24T09:10:11.391Z,100014.22
2023-02-24T09:12:41.246Z,100012.47
2023-02-24T09:15:10.179Z,100015.97
2023-02-24T09:17:40.215Z,100000.16
2023-02-24T09:20:35.969Z,99997.53
2023-02-24T09:23:04.099Z,99993.13
2023-02-24T09:25:44.628Z,99989.59
2023-02-24T09:28:18.042Z,99977.34
2023-02-24T09:30:58.574Z,99975.59
2023-02-24T09:33:41.584Z,99975.59
2023-02-24T09:36:20.083Z,99967.66
2023-02-24T09:39:02.186Z,99965.91
2023-02-24T09:41:53.487Z,99960.66
2023-02-24T09:44:45.303Z,99955.41
2023-02-24T09:47:40.333Z,99949.22
2023-02-24T09:50:55.525Z,99948.38
2023-02-24T09:53:18.220Z,99945.75
2023-02-24T09:56:06.610Z,99933.50
2023-02-24T09:58:58.544Z,99933.50
2023-02-24T10:02:02.096Z,99942.22
2023-02-24T10:05:06.946Z,99936.97
2023-02-24T10:07:40.492Z,99920.28
2023-02-24T10:10:35.741Z,99918.56
2023-02-24T10:13:20.865Z,99914.16
2023-02-24T10:15:58.621Z,99921.16
2023-02-24T10:18:30.050Z,99913.28
2023-02-24T10:21:30.596Z,99907.16
2023-02-24T10:24:37.032Z,99900.13
2023-02-24T10:27:23.946Z,99901.88
2023-02-24T10:30:27.886Z,99894.00
2023-02-24T10:33:00.501Z,99886.94
2023-02-24T10:35:33.557Z,99887.84
2023-02-24T10:38:05.721Z,99879.94
2023-02-24T10:40:46.811Z,99879.09
2023-02-24T10:43:30.277Z,99865.06
2023-02-24T10:46:06.245Z,99859.78
2023-02-24T10:48:41.707Z,99859.78
2023-02-24T10:51:22.190Z,99844.03
2023-02-24T10:54:09.859Z,99841.38
2023-02-24T10:56:44.293Z,99837.88
2023-02-24T10:59:24.373Z,99829.13
2023-02-24T11:02:24.530Z,99814.22
2023-02-24T11:05:04.361Z,99815.97
2023-02-24T11:07:53.639Z,99808.97
2023-02-24T11:10:32.442Z,99791.41
2023-02-24T11:13:33.551Z,99787.91
2023-02-24T11:16:20.031Z,99770.38
2023-02-24T11:18:50.033Z,99775.66
2023-02-24T11:21:17.849Z,99768.63
2023-02-24T11:23:49.269Z,99765.13
2023-02-24T11:26:22.062Z,99752.81
2023-02-24T11:29:30.824Z,99745.84
2023-02-24T11:32:33.203Z,99740.56
2023-02-24T11:35:27.321Z,99729.16
2023-02-24T11:38:27.731Z,99726.53
2023-02-24T11:41:37.961Z,99724.75
2023-02-24T11:44:19.797Z,99716.00
2023-02-24T11:46:53.115Z,99713.38
2023-02-24T11:49:50.073Z,99701.97
2023-02-24T11:52:30.313Z,99693.22
2023-02-24T11:55:00.875Z,99698.47
2023-02-24T11:57:45.662Z,99694.09
2023-02-24T12:00:27.914Z,99696.72
2023-02-24T12:03:13.016Z,99681.81
2023-02-24T12:05:52.792Z,99675.66
2023-02-24T12:08:35.019Z,99673.03
2023-02-24T12:11:57.515Z,99659.00
2023-02-24T12:14:47.976Z,99664.28
2023-02-24T12:17:39.861Z,99645.88
2023-02-24T12:20:31.121Z,99644.97
2023-02-24T12:23:22.993Z,99649.38
2023-02-24T12:26:19.882Z,99650.22
2023-02-24T12:29:18.627Z,99653.75
2023-02-24T12:32:23.203Z,99652.88
2023-02-24T12:35:13.859Z,99643.22
2023-02-24T12:38:31.146Z,99645.88
2023-02-24T12:41:14.572Z,99639.72
2023-02-24T12:43:47.029Z,99644.09
2023-02-24T12:46:30.887Z,99633.59
2023-02-24T12:49:25.535Z,99624.81
2023-02-24T12:52:11.239Z,99614.28
2023-02-24T12:54:53.531Z,99607.28
2023-02-24T12:57:37.116Z,99610.78
2023-02-24T13:00:37.243Z,99598.50
2023-02-24T13:03:30.767Z,99600.28
2023-02-24T13:06:27.064Z,99594.13
2023-02-24T13:09:02.787Z,99591.50
2023-02-24T13:11:42.937Z,99591.50
2023-02-24T13:14:27.152Z,99587.97
2023-02-24T13:17:17.555Z,99575.72
2023-02-24T13:19:45.907Z,99573.09
2023-02-24T13:22:13.591Z,99571.34
2023-02-24T13:24:53.871Z,99568.72
2023-02-24T13:27:26.310Z,99558.19
2023-02-24T13:29:57.839Z,99552.06
2023-02-24T13:32:29.123Z,99552.94
2023-02-24T13:35:05.996Z,99548.53
2023-02-24T13:37:37.523Z,99538.03
2023-02-24T13:40:16.562Z,99534.53
2023-02-24T13:42:57.379Z,99529.28
2023-02-24T13:45:29.437Z,99526.63
2023-02-24T13:48:29.489Z,99523.13
2023-02-24T13:51:17.959Z,99521.34
2023-02-24T13:54:08.926Z,99522.25
2023-02-24T13:57:16.637Z,99509.97
2023-02-24T14:00:10.043Z,99511.72
2023-02-24T14:02:42.877Z,99515.22
2023-02-24T14:05:33.116Z,99516.09
2023-02-24T14:08:01.122Z,99517.84
2023-02-24T14:10:31.511Z,99506.44
2023-02-24T14:13:16.064Z,99493.28
2023-02-24T14:15:45.188Z,99496.78
2023-02-24T14:18:29.902Z,99486.25
2023-02-24T14:20:58.094Z,99478.34
2023-02-24T14:23:33.993Z,99480.09
2023-02-24T14:26:13.812Z,99481.81
2023-02-24T14:28:41.863Z,99473.94
2023-02-24T14:31:16.085Z,99471.28
2023-02-24T14:33:45.271Z,99460.75
2023-02-24T14:36:21.018Z,99461.59
2023-02-24T14:39:09.842Z,99453.72
2023-02-24T14:41:37.101Z,99459.81
2023-02-24T14:44:27.519Z,99445.78
2023-02-24T14:47:00.160Z,99454.56
2023-02-24T14:49:35.587Z,99446.66
2023-02-24T14:52:24.180Z,99438.78
2023-02-24T14:55:03.598Z,99437.88
2023-02-24T14:57:58.685Z,99425.59
2023-02-24T15:00:31.232Z,99421.22
2023-02-24T15:03:22.638Z,99421.22
2023-02-24T15:05:54.613Z,99408.97
2023-02-24T15:08:33.923Z,99414.22
2023-02-24T15:11:10.127Z,99409.81
2023-02-24T15:13:47.712Z,99408.91
2023-02-24T15:16:25.943Z,99404.50
2023-02-24T15:18:56.130Z,99401.88
2023-02-24T15:21:39.681Z,99403.63
2023-02-24T15:24:34.128Z,99401.88
2023-02-24T15:27:23.638Z,99395.72
2023-02-24T15:30:05.643Z,99387.00
2023-02-24T15:32:35.010Z,99374.66
2023-02-24T15:35:02.396Z,99366.78
2023-02-24T15:37:41.837Z,99364.13
2023-02-24T15:40:29.564Z,99364.09
2023-02-24T15:43:08.950Z,99357.03
2023-02-24T15:45:38.820Z,99354.44
2023-02-24T15:48:22.817Z,99357.94
2023-02-24T15:50:52.797Z,99357.06
2023-02-24T15:53:19.629Z,99350.88
2023-02-24T15:55:46.477Z,99348.25
2023-02-24T15:58:25.603Z,99346.50
2023-02-24T16:00:52.609Z,99357.91
2023-02-24T16:03:19.551Z,99345.63
2023-02-24T16:05:46.431Z,99338.59
2023-02-24T16:08:19.175Z,99324.56
2023-02-24T16:10:46.295Z,99337.72
2023-02-24T16:13:25.381Z,99335.94
2023-02-24T16:15:53.439Z,99329.81
2023-02-24T16:18:23.388Z,99326.31
2023-02-24T16:20:55.184Z,99328.06
2023-02-24T16:23:25.354Z,99316.66
2023-02-24T16:25:57.422Z,99311.38
2023-02-24T16:28:24.912Z,99314.03
2023-02-24T16:30:52.644Z,99321.91
2023-02-24T16:33:22.454Z,99312.28
2023-02-24T16:35:55.382Z,99317.53
2023-02-24T16:38:26.463Z,99314.03
2023-02-24T16:40:54.566Z,99314.03
2023-02-24T16:43:21.480Z,99310.50
2023-02-24T16:45:48.665Z,99310.50
2023-02-24T16:48:24.299Z,99297.34
2023-02-24T16:50:51.291Z,99291.22
2023-02-24T16:53:22.720Z,99305.25
2023-02-24T16:55:50.613Z,99294.72
2023-02-24T16:58:17.790Z,99292.97
2023-02-24T17:00:48.834Z,99299.09
2023-02-24T17:03:25.715Z,99295.59
2023-02-24T17:05:53.401Z,99295.59
2023-02-24T17:08:20.865Z,99303.50
2023-02-24T17:10:48.248Z,99287.69
2023-02-24T17:13:19.289Z,99292.91
2023-02-24T17:15:46.538Z,99286.81
2023-02-24T17:18:13.580Z,99291.16
2023-02-24T17:20:42.315Z,99291.16
2023-02-24T17:23:11.372Z,99288.53
2023-02-24T17:25:38.338Z,99288.53
2023-02-24T17:28:06.446Z,99285.91
2023-02-24T17:30:35.451Z,99292.88
2023-02-24T17:33:03.622Z,99289.38
2023-02-24T17:35:30.453Z,99293.75
2023-02-24T17:37:57.435Z,99299.00
2023-02-24T17:40:25.005Z,99294.59
2023-02-24T17:42:51.889Z,99297.22
2023-02-24T17:45:18.778Z,99292.84
2023-02-24T17:47:45.687Z,99296.34
2023-02-24T17:50:13.297Z,99292.84
2023-02-24T17:52:40.776Z,99290.22
2023-02-24T17:55:08.665Z,99298.97
2023-02-24T17:57:36.344Z,99298.06
2023-02-24T18:00:05.697Z,99303.34
2023-02-24T18:02:32.713Z,99302.47
2023-02-24T18:05:02.180Z,99296.34
2023-02-24T18:07:29.014Z,99293.72
2023-02-24T18:09:56.036Z,99289.28
2023-02-24T18:12:24.545Z,99292.81
2023-02-24T18:15:02.400Z,99288.41
2023-02-24T18:17:34.230Z,99287.53
2023-02-24T18:20:01.071Z,99301.56
2023-02-24T18:22:27.886Z,99297.19
2023-02-24T18:24:54.736Z,99305.97
2023-02-24T18:27:22.221Z,99328.75
2023-02-24T18:29:49.045Z,99329.66
2023-02-24T18:32:16.100Z,99320.88
2023-02-24T18:34:43.004Z,99316.50
2023-02-24T18:37:09.918Z,99320.06
2023-02-24T18:39:36.730Z,99310.41
2023-02-24T18:42:03.666Z,99314.78
2023-02-24T18:44:31.096Z,99314.81
2023-02-24T18:46:57.931Z,99304.28
2023-02-24T18:49:24.775Z,99313.94
2023-02-24T18:51:51.566Z,99316.63
2023-02-24T18:54:18.440Z,99310.47
2023-02-24T18:56:45.223Z,99308.72
2023-02-24T18:59:12.072Z,99309.63
2023-02-24T19:01:39.716Z,99321.03
2023-02-24T19:04:08.750Z,99315.78
2023-02-24T19:06:36.476Z,99307.88
2023-02-24T19:09:12.444Z,99307.91
2023-02-24T19:11:40.841Z,99306.16
2023-02-24T19:14:12.001Z,99316.69
2023-02-24T19:16:38.984Z,99316.72
2023-02-24T19:19:06.103Z,99310.59
2023-02-24T19:21:33.971Z,99305.34
2023-02-24T19:24:07.909Z,99305.34
2023-02-24T19:26:34.770Z,99300.97
2023-02-24T19:29:02.265Z,99303.56
2023-02-24T19:31:31.425Z,99305.31
2023-02-24T19:34:08.061Z,99304.41
2023-02-24T19:36:36.743Z,99310.59
2023-02-24T19:39:05.803Z,99306.19
2023-02-24T19:41:32.677Z,99304.47
2023-02-24T19:43:59.564Z,99311.50
2023-02-24T19:46:26.781Z,99311.50
2023-02-24T19:48:56.400Z,99308.88
2023-02-24T19:51:24.473Z,99308.88
2023-02-24T19:53:57.099Z,99311.50
2023-02-24T19:56:30.829Z,99305.38
2023-02-24T19:58:59.818Z,99310.66
2023-02-24T20:01:28.880Z,99308.88
2023-02-24T20:03:59.224Z,99305.34
2023-02-24T20:06:32.056Z,99304.47
2023-02-24T20:09:00.723Z,99310.66
2023-02-24T20:11:32.815Z,99307.16
2023-02-24T20:13:59.668Z,99303.63
2023-02-24T20:16:28.592Z,99301.88
2023-02-24T20:18:55.597Z,99308.00
2023-02-24T20:21:22.771Z,99315.88
2023-02-24T20:23:49.569Z,99311.53
2023-02-24T20:26:17.061Z,99306.31
2023-02-24T20:28:46.923Z,99303.66
2023-02-24T20:31:19.111Z,99313.31
2023-02-24T20:33:47.631Z,99322.09
2023-02-24T20:36:25.142Z,99314.19
2023-02-24T20:38:52.943Z,99316.81
2023-02-24T20:41:21.444Z,99324.72
2023-02-24T20:43:48.970Z,99317.72
2023-02-24T20:46:28.708Z,99312.44
2023-02-24T20:49:02.744Z,99312.47
2023-02-24T20:51:31.085Z,99312.47
2023-02-24T20:53:59.079Z,99305.47
2023-02-24T20:56:29.224Z,99316.00
2023-02-24T20:59:18.330Z,99314.22
2023-02-24T21:01:47.716Z,99314.22
2023-02-24T21:04:18.668Z,99314.22
2023-02-24T21:06:47.740Z,99316.88
2023-02-24T21:09:15.778Z,99310.72
2023-02-24T21:11:42.567Z,99313.34
2023-02-24T21:14:16.543Z,99313.34
2023-02-24T21:16:45.635Z,99314.22
2023-02-24T21:19:12.519Z,99317.75
2023-02-24T21:21:39.281Z,99321.22
2023-02-24T21:24:06.785Z,99313.31
2023-02-24T21:26:33.608Z,99314.19
2023-02-24T21:29:00.364Z,99306.31
2023-02-24T21:31:28.086Z,99310.69
2023-02-24T21:33:55.909Z,99307.19
2023-02-24T21:36:25.674Z,99308.06
2023-02-24T21:38:54.213Z,99315.94
2023-02-24T21:41:22.274Z,99316.88
2023-02-24T21:43:54.672Z,99328.25
2023-02-24T21:46:22.365Z,99326.50
2023-02-24T21:48:57.868Z,99321.25
2023-02-24T21:51:26.725Z,99305.50
2023-02-24T21:53:56.736Z,99303.78
2023-02-24T21:56:27.810Z,99319.59
2023-02-24T21:58:59.995Z,99309.97
2023-02-24T22:01:35.578Z,99303.84
2023-02-24T22:04:06.492Z,99306.47
2023-02-24T22:06:36.240Z,99313.53
2023-02-24T22:09:06.924Z,99331.06
2023-02-24T22:11:37.636Z,99339.81
2023-02-24T22:14:11.281Z,99337.19
2023-02-24T22:16:39.008Z,99335.41
2023-02-24T22:19:06.380Z,99337.19
2023-02-24T22:21:33.342Z,99337.16
2023-02-24T22:24:02.905Z,99328.38
2023-02-24T22:26:31.804Z,99331.00
2023-02-24T22:28:59.882Z,99334.50
2023-02-24T22:31:31.203Z,99324.84
2023-02-24T22:33:58.749Z,99327.47
2023-02-24T22:36:33.543Z,99325.72
2023-02-24T22:39:01.558Z,99319.59
2023-02-24T22:41:31.800Z,99321.34
2023-02-24T22:43:59.459Z,99323.09
2023-02-24T22:46:30.775Z,99323.06
2023-02-24T22:48:58.408Z,99324.84
2023-02-24T22:51:26.597Z,99324.84
2023-02-24T22:53:53.692Z,99326.59
2023-02-24T22:56:25.342Z,99318.72
2023-02-24T22:58:52.655Z,99313.44
2023-02-24T23:01:24.266Z,99311.66
2023-02-24T23:03:52.007Z,99318.69
2023-02-24T23:06:24.717Z,99321.31
2023-02-24T23:08:52.570Z,99321.31
2023-02-24T23:11:29.734Z,99327.44
2023-02-24T23:14:00.472Z,99331.84
2023-02-24T23:16:31.609Z,99335.34
2023-02-24T23:19:01.798Z,99337.09
2023-02-24T23:21:40.916Z,99332.72
2023-02-24T23:24:10.777Z,99341.47
2023-02-24T23:26:53.843Z,99345.88
2023-02-24T23:29:22.862Z,99356.41
2023-02-24T23:31:50.222Z,99348.50
2023-02-24T23:34:17.095Z,99344.13
2023-02-24T23:36:46.667Z,99354.63
2023-02-24T23:39:16.382Z,99361.66
2023-02-24T23:41:43.417Z,99368.66
2023-02-24T23:44:10.459Z,99369.56
2023-02-24T23:46:37.355Z,99365.16
2023-02-24T23:49:05.200Z,99361.66
2023-02-24T23:51:47.645Z,99352.00
2023-02-24T23:54:19.048Z,99355.50
2023-02-24T23:56:46.336Z,99353.78
2023-02-24T23:59:13.427Z,99356.41
